createdAt,value
2022-08-21T00:00:14.668Z,20.60
2022-08-21T00:02:19.130Z,20.53
2022-08-21T00:04:22.492Z,19.97
2022-08-21T00:06:25.312Z,17.57
2022-08-21T00:08:27.291Z,24.13
2022-08-21T00:10:29.387Z,18.23
2022-08-21T00:12:32.193Z,20.73
2022-08-21T00:14:34.634Z,15.93
2022-08-21T00:16:37.251Z,22.33
2022-08-21T00:18:39.167Z,16.30
2022-08-21T00:20:41.730Z,19.33
2022-08-21T00:22:43.922Z,17.93
2022-08-21T00:24:45.871Z,14.53
2022-08-21T00:26:48.389Z,17.73
2022-08-21T00:28:50.483Z,14.23
2022-08-21T00:30:52.574Z,14.10
2022-08-21T00:32:56.239Z,14.83
2022-08-21T00:34:58.869Z,14.40
2022-08-21T00:37:01.009Z,16.63
2022-08-21T00:39:05.144Z,13.23
2022-08-21T00:41:25.950Z,14.50
2022-08-21T00:43:33.960Z,15.10
2022-08-21T00:45:36.303Z,16.20
2022-08-21T00:47:38.446Z,17.10
2022-08-21T00:49:41.510Z,21.20
2022-08-21T00:51:54.978Z,12.00
2022-08-21T00:53:59.072Z,10.90
2022-08-21T00:56:03.411Z,10.77
2022-08-21T00:58:08.338Z,13.87
2022-08-21T01:00:17.469Z,10.70
2022-08-21T01:02:21.123Z,10.60
2022-08-21T01:04:24.128Z,11.60
2022-08-21T01:06:26.183Z,19.40
2022-08-21T01:08:30.176Z,11.83
2022-08-21T01:10:32.855Z,13.93
2022-08-21T01:12:35.962Z,12.23
2022-08-21T01:14:38.004Z,9.80
2022-08-21T01:16:41.514Z,9.90
2022-08-21T01:18:44.724Z,11.53
2022-08-21T01:21:02.292Z,11.70
2022-08-21T01:23:05.742Z,10.73
2022-08-21T01:25:09.272Z,9.43
2022-08-21T01:27:11.711Z,13.20
2022-08-21T01:29:35.377Z,7.67
2022-08-21T01:31:38.158Z,9.70
2022-08-21T01:33:40.309Z,10.00
2022-08-21T01:35:42.279Z,10.57
2022-08-21T01:37:44.708Z,10.17
2022-08-21T01:39:47.185Z,11.17
2022-08-21T01:41:49.260Z,9.97
2022-08-21T01:43:51.276Z,14.00
2022-08-21T01:45:53.283Z,10.50
2022-08-21T01:47:55.252Z,10.57
2022-08-21T01:49:57.317Z,14.00
2022-08-21T01:51:59.512Z,10.43
2022-08-21T01:54:01.531Z,11.90
2022-08-21T01:56:05.930Z,11.87
2022-08-21T01:58:14.163Z,8.47
2022-08-21T02:00:18.259Z,9.47
2022-08-21T02:02:20.415Z,10.53
2022-08-21T02:04:22.858Z,12.83
2022-08-21T02:06:24.916Z,10.90
2022-08-21T02:08:29.380Z,9.63
2022-08-21T02:10:32.963Z,8.70
2022-08-21T02:12:35.073Z,12.53
2022-08-21T02:14:37.127Z,9.40
2022-08-21T02:16:39.805Z,8.40
2022-08-21T02:18:41.808Z,8.40
2022-08-21T02:20:47.573Z,13.50
2022-08-21T02:22:50.546Z,10.47
2022-08-21T02:24:55.108Z,15.30
2022-08-21T02:26:57.422Z,10.30
2022-08-21T02:28:59.709Z,10.03
2022-08-21T02:31:02.196Z,10.37
2022-08-21T02:33:04.348Z,9.20
2022-08-21T02:35:07.137Z,11.07
2022-08-21T02:37:09.585Z,8.77
2022-08-21T02:39:11.546Z,10.40
2022-08-21T02:41:16.305Z,10.67
2022-08-21T02:43:20.493Z,11.13
2022-08-21T02:45:22.586Z,15.30
2022-08-21T02:47:24.596Z,10.10
2022-08-21T02:49:26.590Z,10.83
2022-08-21T02:51:28.599Z,7.60
2022-08-21T02:53:31.316Z,14.00
2022-08-21T02:55:34.163Z,9.00
2022-08-21T02:57:36.925Z,9.43
2022-08-21T02:59:38.893Z,10.37
2022-08-21T03:01:41.000Z,18.73
2022-08-21T03:03:45.099Z,8.13
2022-08-21T03:05:47.052Z,10.27
2022-08-21T03:07:49.150Z,10.93
2022-08-21T03:09:55.760Z,11.43
2022-08-21T03:11:58.673Z,8.83
2022-08-21T03:14:00.742Z,9.20
2022-08-21T03:16:02.847Z,11.37
2022-08-21T03:18:07.931Z,8.00
2022-08-21T03:20:10.565Z,8.80
2022-08-21T03:22:12.758Z,11.27
2022-08-21T03:24:14.768Z,9.10
2022-08-21T03:26:19.803Z,11.30
2022-08-21T03:28:25.216Z,11.23
2022-08-21T03:30:27.317Z,12.27
2022-08-21T03:32:30.104Z,10.43
2022-08-21T03:34:32.132Z,17.13
2022-08-21T03:36:34.259Z,13.07
2022-08-21T03:38:38.086Z,14.10
2022-08-21T03:40:40.239Z,9.80
2022-08-21T03:42:42.556Z,11.00
2022-08-21T03:44:44.699Z,9.50
2022-08-21T03:46:46.644Z,8.67
2022-08-21T03:48:49.038Z,8.90
2022-08-21T03:50:53.283Z,13.03
2022-08-21T03:52:55.697Z,8.07
2022-08-21T03:54:57.692Z,8.90
2022-08-21T03:56:59.971Z,8.43
2022-08-21T03:59:03.655Z,7.60
2022-08-21T04:01:07.152Z,8.37
2022-08-21T04:03:09.085Z,12.57
2022-08-21T04:05:14.610Z,10.40
2022-08-21T04:07:16.832Z,8.40
2022-08-21T04:09:19.699Z,8.43
2022-08-21T04:11:21.719Z,8.90
2022-08-21T04:13:23.996Z,9.43
2022-08-21T04:15:26.859Z,14.10
2022-08-21T04:17:28.823Z,8.70
2022-08-21T04:19:30.785Z,9.30
2022-08-21T04:21:33.004Z,11.53
2022-08-21T04:23:35.188Z,9.90
2022-08-21T04:25:37.420Z,17.60
2022-08-21T04:27:41.125Z,12.80
2022-08-21T04:29:43.063Z,9.00
2022-08-21T04:31:45.047Z,8.70
2022-08-21T04:33:47.001Z,15.47
2022-08-21T04:35:50.436Z,10.17
2022-08-21T04:37:52.530Z,13.00
2022-08-21T04:39:57.522Z,12.83
2022-08-21T04:41:59.613Z,13.20
2022-08-21T04:44:01.731Z,11.23
2022-08-21T04:46:03.733Z,14.27
2022-08-21T04:48:12.007Z,10.53
2022-08-21T04:50:15.461Z,17.80
2022-08-21T04:52:28.696Z,14.43
2022-08-21T04:54:30.815Z,16.53
2022-08-21T04:56:35.765Z,8.73
2022-08-21T04:58:39.286Z,11.40
2022-08-21T05:00:41.663Z,8.20
2022-08-21T05:02:43.661Z,9.50
2022-08-21T05:04:51.274Z,13.50
2022-08-21T05:06:56.144Z,9.63
2022-08-21T05:09:02.124Z,10.30
2022-08-21T05:11:04.720Z,9.57
2022-08-21T05:13:08.030Z,9.00
2022-08-21T05:15:13.477Z,9.63
2022-08-21T05:17:15.827Z,8.73
2022-08-21T05:19:17.799Z,8.00
2022-08-21T05:21:19.836Z,7.17
2022-08-21T05:23:21.832Z,9.50
2022-08-21T05:25:24.109Z,12.43
2022-08-21T05:27:26.169Z,10.93
2022-08-21T05:29:32.447Z,7.70
2022-08-21T05:31:34.555Z,6.37
2022-08-21T05:33:36.515Z,12.20
2022-08-21T05:35:42.344Z,10.97
2022-08-21T05:37:44.340Z,7.03
2022-08-21T05:40:04.615Z,7.93
2022-08-21T05:42:08.600Z,16.10
2022-08-21T05:44:10.752Z,8.10
2022-08-21T05:46:13.379Z,8.10
2022-08-21T05:48:22.848Z,10.87
2022-08-21T05:50:25.045Z,11.60
2022-08-21T05:52:31.372Z,6.20
2022-08-21T05:54:33.687Z,11.43
2022-08-21T05:56:35.919Z,7.53
2022-08-21T05:58:37.913Z,8.70
2022-08-21T06:00:40.458Z,8.63
2022-08-21T06:02:42.385Z,5.93
2022-08-21T06:04:44.460Z,7.07
2022-08-21T06:06:47.067Z,8.67
2022-08-21T06:08:49.023Z,6.30
2022-08-21T06:10:52.246Z,13.33
2022-08-21T06:12:56.027Z,7.30
2022-08-21T06:14:58.270Z,6.60
2022-08-21T06:17:05.677Z,12.80
2022-08-21T06:19:07.719Z,5.27
2022-08-21T06:21:10.117Z,10.47
2022-08-21T06:23:12.204Z,7.30
2022-08-21T06:25:14.218Z,6.13
2022-08-21T06:27:16.510Z,8.80
2022-08-21T06:29:18.637Z,5.40
2022-08-21T06:31:25.150Z,6.67
2022-08-21T06:33:32.331Z,8.13
2022-08-21T06:35:35.587Z,10.73
2022-08-21T06:37:37.890Z,11.10
2022-08-21T06:39:45.027Z,7.40
2022-08-21T06:41:47.428Z,6.57
2022-08-21T06:43:49.986Z,9.80
2022-08-21T06:45:52.145Z,10.53
2022-08-21T06:47:54.143Z,5.40
2022-08-21T06:49:56.061Z,11.13
2022-08-21T06:51:58.080Z,7.53
2022-08-21T06:54:00.056Z,4.37
2022-08-21T06:56:02.431Z,8.77
2022-08-21T06:58:05.808Z,4.93
2022-08-21T07:00:10.235Z,7.17
2022-08-21T07:02:12.219Z,3.90
2022-08-21T07:04:14.257Z,5.47
2022-08-21T07:06:16.576Z,8.00
2022-08-21T07:08:18.628Z,9.23
2022-08-21T07:10:22.243Z,5.50
2022-08-21T07:12:24.846Z,5.30
2022-08-21T07:14:26.797Z,6.47
2022-08-21T07:16:28.846Z,9.93
2022-08-21T07:18:30.893Z,7.03
2022-08-21T07:20:33.745Z,4.10
2022-08-21T07:22:36.916Z,6.50
2022-08-21T07:24:38.955Z,4.23
2022-08-21T07:26:41.156Z,8.10
2022-08-21T07:28:43.233Z,7.77
2022-08-21T07:30:45.494Z,4.10
2022-08-21T07:32:50.184Z,6.90
2022-08-21T07:34:52.289Z,8.50
2022-08-21T07:36:54.348Z,6.97
2022-08-21T07:38:56.308Z,4.60
2022-08-21T07:41:00.086Z,3.00
2022-08-21T07:43:02.145Z,5.67
2022-08-21T07:45:04.370Z,7.30
2022-08-21T07:47:06.419Z,7.93
2022-08-21T07:49:08.424Z,6.07
2022-08-21T07:51:14.273Z,8.87
2022-08-21T07:53:17.584Z,5.43
2022-08-21T07:55:20.935Z,7.23
2022-08-21T07:57:22.948Z,8.50
2022-08-21T07:59:25.249Z,5.33
2022-08-21T08:01:27.384Z,4.10
2022-08-21T08:03:29.537Z,5.83
2022-08-21T08:05:32.937Z,3.93
2022-08-21T08:07:35.408Z,5.80
2022-08-21T08:09:37.373Z,9.77
2022-08-21T08:11:40.131Z,6.20
2022-08-21T08:13:44.477Z,7.40
2022-08-21T08:15:46.452Z,3.57
2022-08-21T08:17:49.256Z,4.67
2022-08-21T08:19:51.351Z,6.47
2022-08-21T08:21:53.491Z,8.73
2022-08-21T08:23:55.479Z,4.70
2022-08-21T08:25:58.016Z,3.67
2022-08-21T08:28:00.016Z,9.53
2022-08-21T08:30:02.505Z,4.53
2022-08-21T08:32:05.995Z,7.33
2022-08-21T08:34:08.054Z,7.10
2022-08-21T08:36:18.417Z,6.13
2022-08-21T08:38:24.502Z,11.00
2022-08-21T08:40:36.724Z,6.23
2022-08-21T08:42:40.845Z,5.30
2022-08-21T08:44:47.453Z,9.90
2022-08-21T08:46:51.742Z,14.80
2022-08-21T08:49:04.478Z,6.00
2022-08-21T08:51:10.339Z,5.27
2022-08-21T08:53:17.507Z,4.30
2022-08-21T08:55:27.018Z,6.10
2022-08-21T08:57:29.544Z,5.40
2022-08-21T08:59:45.727Z,5.40
2022-08-21T09:01:47.989Z,5.83
2022-08-21T09:03:51.183Z,8.43
2022-08-21T09:06:06.298Z,4.87
2022-08-21T09:08:28.239Z,5.97
2022-08-21T09:10:54.065Z,8.60
2022-08-21T09:13:13.263Z,11.00
2022-08-21T09:15:36.000Z,5.93
2022-08-21T09:17:56.519Z,5.73
2022-08-21T09:19:58.557Z,4.60
2022-08-21T09:22:18.529Z,5.30
2022-08-21T09:24:32.302Z,5.20
2022-08-21T09:26:44.324Z,4.73
2022-08-21T09:28:48.650Z,6.47
2022-08-21T09:30:51.375Z,18.37
2022-08-21T09:32:53.452Z,7.37
2022-08-21T09:35:04.855Z,5.53
2022-08-21T09:37:18.623Z,11.10
2022-08-21T09:39:43.530Z,5.93
2022-08-21T09:41:57.357Z,6.37
2022-08-21T09:44:00.173Z,5.93
2022-08-21T09:46:22.998Z,10.63
2022-08-21T09:48:27.148Z,6.37
2022-08-21T09:50:35.106Z,8.83
2022-08-21T09:52:45.032Z,8.27
2022-08-21T09:54:47.851Z,9.70
2022-08-21T09:57:17.410Z,8.77
2022-08-21T09:59:36.431Z,6.53
2022-08-21T10:01:44.265Z,5.27
2022-08-21T10:03:46.713Z,9.90
2022-08-21T10:05:59.785Z,4.83
2022-08-21T10:08:02.551Z,5.70
2022-08-21T10:10:08.321Z,6.10
2022-08-21T10:12:18.204Z,4.90
2022-08-21T10:14:41.948Z,5.27
2022-08-21T10:17:17.292Z,6.20
2022-08-21T10:19:43.742Z,7.80
2022-08-21T10:22:04.545Z,7.00
2022-08-21T10:24:11.390Z,5.80
2022-08-21T10:27:17.868Z,4.63
2022-08-21T10:29:41.705Z,5.13
2022-08-21T10:32:04.928Z,3.70
2022-08-21T10:34:57.153Z,5.10
2022-08-21T10:37:11.341Z,2.97
2022-08-21T10:39:26.670Z,3.03
2022-08-21T10:41:40.692Z,10.00
2022-08-21T10:43:53.626Z,6.10
2022-08-21T10:46:19.158Z,9.57
2022-08-21T10:48:52.033Z,5.57
2022-08-21T10:51:06.019Z,5.83
2022-08-21T10:53:30.023Z,4.33
2022-08-21T10:55:40.185Z,5.83
2022-08-21T10:57:53.607Z,9.70
2022-08-21T11:00:04.522Z,4.33
2022-08-21T11:02:16.788Z,3.97
2022-08-21T11:04:23.127Z,13.47
2022-08-21T11:06:28.807Z,4.47
2022-08-21T11:08:36.663Z,5.67
2022-08-21T11:10:57.873Z,6.73
2022-08-21T11:13:12.854Z,6.90
2022-08-21T11:15:37.487Z,4.60
2022-08-21T11:17:50.979Z,7.43
2022-08-21T11:19:59.502Z,9.40
2022-08-21T11:22:22.222Z,6.90
2022-08-21T11:24:45.543Z,5.50
2022-08-21T11:26:55.935Z,4.50
2022-08-21T11:29:18.311Z,4.10
2022-08-21T11:31:36.004Z,10.23
2022-08-21T11:33:59.390Z,6.70
2022-08-21T11:36:13.982Z,5.97
2022-08-21T11:38:52.533Z,7.13
2022-08-21T11:41:24.903Z,5.10
2022-08-21T11:43:36.953Z,5.00
2022-08-21T11:45:45.249Z,6.97
2022-08-21T11:48:11.815Z,3.67
2022-08-21T11:50:35.657Z,6.63
2022-08-21T11:52:46.143Z,6.63
2022-08-21T11:55:04.658Z,5.53
2022-08-21T11:57:11.763Z,6.67
2022-08-21T11:59:22.001Z,9.70
2022-08-21T12:01:27.452Z,6.67
2022-08-21T12:03:32.728Z,7.23
2022-08-21T12:05:39.729Z,10.77
2022-08-21T12:07:43.563Z,8.70
2022-08-21T12:09:57.917Z,6.90
2022-08-21T12:12:03.176Z,10.10
2022-08-21T12:14:08.078Z,7.67
2022-08-21T12:16:15.680Z,9.03
2022-08-21T12:18:34.631Z,8.10
2022-08-21T12:20:39.070Z,6.73
2022-08-21T12:23:14.472Z,5.23
2022-08-21T12:25:21.732Z,9.43
2022-08-21T12:27:30.497Z,6.93
2022-08-21T12:29:34.739Z,7.43
2022-08-21T12:31:36.901Z,4.40
2022-08-21T12:33:41.891Z,8.80
2022-08-21T12:35:44.749Z,5.57
2022-08-21T12:37:53.968Z,4.43
2022-08-21T12:39:59.381Z,6.10
2022-08-21T12:42:07.379Z,8.50
2022-08-21T12:44:16.104Z,4.17
2022-08-21T12:46:36.042Z,6.83
2022-08-21T12:48:50.359Z,4.50
2022-08-21T12:50:57.495Z,7.70
2022-08-21T12:53:21.785Z,6.33
2022-08-21T12:55:30.102Z,7.70
2022-08-21T12:57:32.702Z,5.60
2022-08-21T12:59:39.749Z,10.63
2022-08-21T13:01:51.123Z,4.17
2022-08-21T13:04:04.577Z,6.40
2022-08-21T13:06:08.111Z,6.30
2022-08-21T13:08:12.810Z,12.70
2022-08-21T13:10:22.464Z,7.10
2022-08-21T13:12:32.254Z,9.00
2022-08-21T13:14:45.293Z,6.83
2022-08-21T13:16:48.516Z,10.97
2022-08-21T13:19:06.505Z,4.80
2022-08-21T13:21:16.208Z,4.10
2022-08-21T13:23:25.378Z,4.57
2022-08-21T13:25:30.809Z,5.70
2022-08-21T13:27:32.950Z,5.90
2022-08-21T13:29:38.610Z,6.67
2022-08-21T13:31:43.429Z,8.57
2022-08-21T13:33:45.871Z,6.93
2022-08-21T13:35:57.199Z,6.37
2022-08-21T13:38:00.112Z,10.97
2022-08-21T13:40:02.517Z,5.03
2022-08-21T13:42:07.189Z,6.10
2022-08-21T13:44:23.096Z,4.03
2022-08-21T13:46:26.378Z,8.20
2022-08-21T13:48:31.202Z,9.70
2022-08-21T13:50:35.126Z,7.20
2022-08-21T13:52:49.027Z,4.07
2022-08-21T13:55:01.726Z,5.00
2022-08-21T13:57:04.713Z,9.27
2022-08-21T13:59:06.930Z,4.20
2022-08-21T14:01:19.842Z,5.90
2022-08-21T14:03:43.825Z,8.17
2022-08-21T14:05:47.389Z,4.17
2022-08-21T14:07:51.715Z,5.30
2022-08-21T14:09:54.290Z,6.20
2022-08-21T14:11:57.811Z,6.97
2022-08-21T14:14:05.883Z,8.27
2022-08-21T14:16:30.007Z,5.70
2022-08-21T14:18:32.190Z,2.77
2022-08-21T14:20:36.703Z,5.50
2022-08-21T14:22:45.330Z,3.43
2022-08-21T14:24:47.465Z,5.83
2022-08-21T14:27:04.180Z,6.63
2022-08-21T14:29:10.417Z,3.70
2022-08-21T14:31:15.777Z,6.60
2022-08-21T14:33:28.820Z,3.03
2022-08-21T14:35:31.766Z,5.17
2022-08-21T14:37:35.229Z,6.67
2022-08-21T14:39:37.500Z,4.20
2022-08-21T14:41:39.704Z,5.50
2022-08-21T14:43:41.910Z,5.07
2022-08-21T14:45:44.955Z,7.40
2022-08-21T14:47:47.134Z,4.03
2022-08-21T14:49:49.351Z,8.23
2022-08-21T14:51:57.767Z,2.50
2022-08-21T14:54:00.083Z,7.13
2022-08-21T14:56:08.274Z,2.30
2022-08-21T14:58:10.856Z,4.73
2022-08-21T15:00:15.064Z,4.97
2022-08-21T15:02:17.408Z,4.60
2022-08-21T15:04:19.790Z,4.97
2022-08-21T15:06:22.285Z,6.77
2022-08-21T15:08:24.378Z,6.83
2022-08-21T15:10:26.636Z,4.33
2022-08-21T15:12:28.897Z,2.93
2022-08-21T15:14:33.718Z,5.50
2022-08-21T15:16:36.535Z,5.23
2022-08-21T15:18:38.890Z,6.20
2022-08-21T15:20:41.127Z,3.73
2022-08-21T15:22:47.850Z,4.80
2022-08-21T15:24:50.416Z,7.70
2022-08-21T15:26:53.790Z,3.27
2022-08-21T15:28:55.927Z,9.40
2022-08-21T15:30:58.934Z,9.20
2022-08-21T15:33:01.126Z,8.60
2022-08-21T15:35:03.769Z,6.20
2022-08-21T15:37:08.903Z,7.03
2022-08-21T15:39:11.045Z,9.83
2022-08-21T15:41:13.419Z,4.50
2022-08-21T15:43:41.267Z,7.40
2022-08-21T15:45:43.419Z,3.40
2022-08-21T15:47:46.632Z,8.80
2022-08-21T15:49:48.891Z,3.20
2022-08-21T15:51:51.005Z,5.83
2022-08-21T15:53:53.142Z,5.40
2022-08-21T15:55:55.637Z,6.00
2022-08-21T15:57:59.947Z,5.60
2022-08-21T16:00:16.702Z,4.70
2022-08-21T16:02:30.318Z,5.93
2022-08-21T16:04:32.455Z,5.63
2022-08-21T16:06:37.691Z,4.43
2022-08-21T16:08:55.574Z,7.60
2022-08-21T16:10:58.075Z,6.97
2022-08-21T16:13:04.052Z,6.30
2022-08-21T16:15:09.826Z,6.40
2022-08-21T16:17:12.659Z,5.00
2022-08-21T16:19:15.093Z,4.67
2022-08-21T16:21:18.231Z,5.13
2022-08-21T16:23:20.464Z,4.03
2022-08-21T16:25:23.119Z,5.07
2022-08-21T16:27:27.303Z,4.07
2022-08-21T16:29:34.344Z,4.93
2022-08-21T16:31:36.563Z,3.40
2022-08-21T16:33:44.519Z,3.87
2022-08-21T16:35:47.667Z,4.17
2022-08-21T16:37:53.191Z,7.37
2022-08-21T16:39:55.622Z,5.23
2022-08-21T16:41:57.871Z,5.53
2022-08-21T16:44:01.397Z,4.40
2022-08-21T16:46:04.080Z,7.45
2022-08-21T16:48:09.723Z,4.43
2022-08-21T16:50:16.371Z,5.70
2022-08-21T16:52:19.036Z,4.20
2022-08-21T16:54:21.823Z,6.67
2022-08-21T16:56:24.051Z,6.03
2022-08-21T16:58:31.244Z,6.60
2022-08-21T17:00:33.372Z,2.63
2022-08-21T17:02:41.091Z,9.80
2022-08-21T17:04:43.227Z,3.80
2022-08-21T17:06:45.459Z,3.43
2022-08-21T17:08:52.414Z,3.60
2022-08-21T17:10:55.192Z,6.10
2022-08-21T17:12:58.744Z,9.03
2022-08-21T17:15:13.320Z,6.80
2022-08-21T17:17:16.643Z,7.53
2022-08-21T17:19:19.636Z,8.67
2022-08-21T17:21:22.327Z,7.80
2022-08-21T17:23:24.575Z,8.83
2022-08-21T17:25:26.975Z,9.07
2022-08-21T17:27:29.246Z,6.90
2022-08-21T17:29:37.199Z,6.73
2022-08-21T17:31:40.221Z,6.40
2022-08-21T17:33:50.596Z,7.90
2022-08-21T17:35:53.557Z,6.17
2022-08-21T17:37:57.057Z,8.00
2022-08-21T17:40:00.103Z,7.50
2022-08-21T17:42:05.755Z,7.67
2022-08-21T17:44:11.103Z,2.53
2022-08-21T17:46:29.034Z,5.97
2022-08-21T17:48:31.257Z,8.70
2022-08-21T17:50:34.045Z,7.27
2022-08-21T17:52:36.350Z,4.10
2022-08-21T17:54:40.993Z,4.77
2022-08-21T17:56:43.298Z,5.70
2022-08-21T17:58:49.208Z,6.40
2022-08-21T18:00:51.516Z,4.17
2022-08-21T18:03:03.215Z,9.10
2022-08-21T18:05:08.237Z,9.40
2022-08-21T18:07:10.387Z,5.43
2022-08-21T18:09:18.459Z,4.57
2022-08-21T18:11:25.704Z,7.27
2022-08-21T18:13:30.835Z,5.27
2022-08-21T18:15:33.484Z,9.23
2022-08-21T18:17:35.810Z,4.50
2022-08-21T18:19:38.152Z,4.57
2022-08-21T18:21:51.907Z,7.60
2022-08-21T18:23:56.753Z,3.87
2022-08-21T18:25:59.176Z,5.57
2022-08-21T18:28:06.465Z,9.50
2022-08-21T18:30:09.615Z,5.70
2022-08-21T18:32:30.346Z,11.30
2022-08-21T18:34:39.359Z,7.00
2022-08-21T18:36:41.611Z,4.80
2022-08-21T18:38:43.782Z,7.43
2022-08-21T18:40:55.585Z,12.07
2022-08-21T18:43:00.610Z,2.93
2022-08-21T18:45:06.951Z,5.23
2022-08-21T18:47:19.391Z,8.07
2022-08-21T18:49:21.749Z,3.43
2022-08-21T18:51:24.440Z,4.57
2022-08-21T18:53:29.247Z,3.67
2022-08-21T18:55:32.687Z,7.00
2022-08-21T18:57:36.640Z,4.60
2022-08-21T18:59:39.363Z,5.23
2022-08-21T19:01:43.197Z,3.23
2022-08-21T19:03:50.688Z,7.03
2022-08-21T19:05:54.041Z,6.50
2022-08-21T19:07:57.027Z,6.80
2022-08-21T19:12:24.247Z,6.57
2022-08-21T19:14:31.778Z,6.27
2022-08-21T19:16:33.879Z,7.53
2022-08-21T19:18:39.984Z,10.30
2022-08-21T19:20:42.797Z,10.07
2022-08-21T19:22:53.531Z,3.47
2022-08-21T19:24:55.899Z,5.00
2022-08-21T19:26:58.069Z,6.30
2022-08-21T19:29:03.630Z,4.90
2022-08-21T19:31:16.450Z,8.00
2022-08-21T19:33:24.090Z,6.17
2022-08-21T19:35:26.280Z,6.30
2022-08-21T19:37:28.419Z,5.00
2022-08-21T19:39:32.518Z,5.90
2022-08-21T19:41:38.651Z,6.97
2022-08-21T19:43:47.822Z,6.37
2022-08-21T19:45:50.763Z,7.37
2022-08-21T19:47:54.130Z,8.20
2022-08-21T19:49:58.555Z,16.40
2022-08-21T19:52:01.559Z,7.47
2022-08-21T19:54:04.408Z,6.83
2022-08-21T19:56:06.859Z,13.60
2022-08-21T19:58:36.204Z,8.63
2022-08-21T20:00:38.738Z,7.93
2022-08-21T20:02:48.115Z,8.30
2022-08-21T20:05:00.972Z,7.50
2022-08-21T20:07:04.055Z,8.70
2022-08-21T20:09:10.632Z,10.63
2022-08-21T20:11:14.777Z,10.10
2022-08-21T20:13:21.557Z,8.73
2022-08-21T20:15:24.518Z,10.67
2022-08-21T20:17:26.782Z,12.50
2022-08-21T20:19:28.873Z,9.70
2022-08-21T20:23:56.959Z,13.80
2022-08-21T20:25:59.752Z,6.57
2022-08-21T20:28:03.704Z,8.93
2022-08-21T20:30:07.359Z,10.57
2022-08-21T20:32:12.254Z,10.87
2022-08-21T20:34:14.578Z,12.97
2022-08-21T20:36:19.708Z,13.17
2022-08-21T20:38:22.453Z,16.77
2022-08-21T20:40:27.058Z,11.53
2022-08-21T20:42:31.392Z,17.60
2022-08-21T20:44:36.123Z,21.80
2022-08-21T20:46:38.447Z,17.73
2022-08-21T20:48:49.513Z,16.50
2022-08-21T20:51:13.585Z,17.33
2022-08-21T20:53:43.998Z,21.30
2022-08-21T20:55:48.434Z,20.90
2022-08-21T20:58:14.035Z,21.30
2022-08-21T21:00:19.119Z,22.30
2022-08-21T21:02:44.252Z,30.80
2022-08-21T21:05:15.736Z,28.77
2022-08-21T21:07:25.899Z,27.40
2022-08-21T21:09:40.366Z,27.03
2022-08-21T21:11:51.491Z,17.63
2022-08-21T21:13:58.140Z,14.23
2022-08-21T21:16:06.801Z,16.90
2022-08-21T21:18:21.327Z,22.27
2022-08-21T21:20:38.476Z,15.20
2022-08-21T21:22:45.947Z,21.50
2022-08-21T21:24:57.542Z,16.13
2022-08-21T21:27:11.834Z,15.97
2022-08-21T21:29:25.267Z,17.93
2022-08-21T21:31:28.628Z,15.10
2022-08-21T21:33:31.151Z,10.30
2022-08-21T21:35:39.951Z,12.23
2022-08-21T21:37:52.656Z,9.40
2022-08-21T21:40:22.781Z,9.60
2022-08-21T21:42:31.893Z,13.93
2022-08-21T21:45:18.499Z,10.17
2022-08-21T21:47:44.323Z,10.10
2022-08-21T21:49:58.736Z,12.20
2022-08-21T21:52:23.387Z,10.10
2022-08-21T21:54:52.005Z,8.87
2022-08-21T21:57:00.191Z,10.57
2022-08-21T21:59:15.485Z,10.70
2022-08-21T22:01:34.840Z,6.90
2022-08-21T22:03:54.396Z,8.13
2022-08-21T22:06:04.587Z,10.07
2022-08-21T22:08:20.652Z,9.47
2022-08-21T22:11:08.940Z,10.23
2022-08-21T22:14:10.059Z,8.07
2022-08-21T22:16:12.328Z,6.27
2022-08-21T22:18:17.416Z,6.83
2022-08-21T22:20:38.473Z,9.37
2022-08-21T22:22:43.054Z,6.40
2022-08-21T22:24:51.471Z,9.40
2022-08-21T22:27:03.095Z,12.50
2022-08-21T22:29:10.105Z,5.17
2022-08-21T22:31:23.016Z,11.20
2022-08-21T22:33:28.162Z,12.00
2022-08-21T22:35:32.991Z,12.67
2022-08-21T22:37:41.171Z,11.53
2022-08-21T22:39:46.095Z,7.53
2022-08-21T22:41:48.489Z,7.07
2022-08-21T22:43:59.847Z,8.00
2022-08-21T22:46:07.123Z,13.40
2022-08-21T22:48:14.547Z,7.93
2022-08-21T22:50:24.773Z,6.47
2022-08-21T22:52:29.529Z,18.77
2022-08-21T22:54:38.335Z,11.43
2022-08-21T22:56:42.649Z,7.57
2022-08-21T22:58:55.869Z,20.00
2022-08-21T23:01:08.468Z,7.50
2022-08-21T23:03:19.361Z,10.30
2022-08-21T23:05:35.030Z,9.60
2022-08-21T23:07:43.637Z,16.07
2022-08-21T23:09:48.446Z,9.67
2022-08-21T23:11:58.174Z,11.23
2022-08-21T23:14:00.588Z,14.13
2022-08-21T23:16:19.799Z,10.17
2022-08-21T23:18:40.173Z,11.63
2022-08-21T23:20:56.194Z,9.47
2022-08-21T23:23:22.190Z,13.70
2022-08-21T23:25:48.720Z,8.13
2022-08-21T23:28:01.236Z,11.20
2022-08-21T23:30:14.856Z,10.53
2022-08-21T23:32:58.761Z,12.83
2022-08-21T23:35:08.594Z,6.43
2022-08-21T23:37:33.020Z,11.17
2022-08-21T23:40:08.493Z,7.90
2022-08-21T23:42:25.427Z,8.83
2022-08-21T23:45:13.800Z,7.70
2022-08-21T23:47:28.354Z,9.43
2022-08-21T23:49:47.058Z,9.30
2022-08-21T23:52:04.438Z,8.37
2022-08-21T23:54:13.336Z,9.00
2022-08-21T23:56:51.886Z,11.90
2022-08-21T23:59:13.085Z,12.40
